Time;durP1;ratioP1;P1;durP2;ratioP2;P2;SDS_P1;SDS_P2;PMS_P1;PMS_P2;Temp;Humidity;BMP_temperature;BMP_pressure;BME280_temperature;BME280_humidity;BME280_pressure;Samples;Min_cycle;Max_cycle;Signal;HPM_P1;HPM_P2
2022/01/23 00:02:13;;;;;;;5.07;2.03;;;;;;;7.84;100.00;102439.47;5014711;28;20044;-77
2022/01/23 00:04:39;;;;;;;5.80;2.30;;;;;;;7.91;100.00;102437.25;5011053;28;20050;-78
2022/01/23 00:07:07;;;;;;;8.20;2.95;;;;;;;8.00;100.00;102440.03;5003088;28;20049;-78
2022/01/23 00:09:33;;;;;;;7.50;2.95;;;;;;;8.04;100.00;102436.50;5013055;28;20041;-76
2022/01/23 00:12:03;;;;;;;5.40;2.65;;;;;;;8.04;100.00;102433.81;5000462;28;20040;-77
2022/01/23 00:17:20;;;;;;;6.32;2.33;;;;;;;7.81;100.00;102444.63;5003880;28;20046;-76
2022/01/23 00:19:49;;;;;;;6.43;2.97;;;;;;;7.90;100.00;102440.19;5004770;28;20116;-78
2022/01/23 00:22:14;;;;;;;7.00;2.45;;;;;;;7.96;100.00;102445.19;4999766;28;20097;-77
2022/01/23 00:32:44;;;;;;;5.07;2.67;;;;;;;7.88;100.00;102442.38;4999985;28;20034;-78
2022/01/23 00:35:10;;;;;;;5.90;2.55;;;;;;;7.85;100.00;102443.78;5004834;28;20090;-78
2022/01/23 00:37:36;;;;;;;4.97;2.17;;;;;;;7.95;100.00;102429.41;5007795;28;20046;-77
2022/01/23 00:40:02;;;;;;;8.05;3.25;;;;;;;7.95;100.00;102432.09;5005186;28;20149;-77
2022/01/23 00:42:28;;;;;;;9.13;2.53;;;;;;;7.93;100.00;102440.44;5001140;28;20062;-79
2022/01/23 00:45:03;;;;;;;5.47;2.20;;;;;;;7.82;100.00;102448.94;5005556;28;20041;-79
2022/01/23 00:47:31;;;;;;;5.88;2.38;;;;;;;7.73;100.00;102445.28;4998484;28;20026;-78
2022/01/23 00:49:57;;;;;;;5.32;2.80;;;;;;;7.65;100.00;102433.34;5009217;28;20439;-77
2022/01/23 00:52:22;;;;;;;9.30;2.50;;;;;;;7.81;100.00;102425.88;5002302;28;20067;-77
2022/01/23 00:54:48;;;;;;;5.68;2.78;;;;;;;7.72;100.00;102438.34;5005924;28;20041;-77
2022/01/23 00:57:14;;;;;;;3.67;2.22;;;;;;;7.87;100.00;102444.28;5001588;28;20458;-77
2022/01/23 00:59:40;;;;;;;7.30;3.25;;;;;;;7.89;100.00;102435.94;5010671;28;20133;-78
2022/01/23 01:02:05;;;;;;;5.13;2.15;;;;;;;7.89;100.00;102439.41;5006653;28;20033;-78
2022/01/23 01:04:31;;;;;;;5.80;2.42;;;;;;;7.94;100.00;102446.56;5004757;28;20523;-78
2022/01/23 01:06:56;;;;;;;6.50;2.60;;;;;;;7.91;100.00;102449.84;5002041;28;20113;-78
2022/01/23 01:09:21;;;;;;;4.85;2.20;;;;;;;7.90;100.00;102446.38;5010593;28;20409;-78
2022/01/23 01:11:59;;;;;;;5.38;2.55;;;;;;;7.87;100.00;102441.59;5012549;28;20029;-78
2022/01/23 01:14:37;;;;;;;3.88;2.30;;;;;;;8.04;100.00;102446.41;5010828;28;20120;-77
2022/01/23 01:17:23;;;;;;;4.25;2.00;;;;;;;8.03;100.00;102452.88;4979336;28;20046;-77
2022/01/23 01:33:36;;;;;;;3.72;1.77;;;;;;;7.88;100.00;102469.19;5006950;28;20384;-78
2022/01/23 01:36:21;;;;;;;3.88;1.80;;;;;;;7.95;100.00;102470.44;5006554;28;20030;-77
2022/01/23 01:38:49;;;;;;;3.95;1.80;;;;;;;7.89;100.00;102470.81;4997149;28;20034;-77
2022/01/23 01:41:19;;;;;;;6.28;1.98;;;;;;;7.84;100.00;102470.88;5005276;28;21438;-78
2022/01/23 01:43:46;;;;;;;4.80;1.77;;;;;;;7.91;100.00;102468.63;4993338;28;20037;-78
2022/01/23 01:46:12;;;;;;;4.38;2.05;;;;;;;7.94;100.00;102462.66;5005952;28;20057;-78
2022/01/23 01:48:45;;;;;;;2.53;1.48;;;;;;;8.00;100.00;102467.66;4991547;28;20026;-78
2022/01/23 01:51:17;;;;;;;5.00;1.73;;;;;;;8.21;100.00;102468.13;4990649;28;20126;-78
2022/01/23 01:53:54;;;;;;;4.63;1.70;;;;;;;8.03;100.00;102468.97;4990970;28;20034;-80
2022/01/23 01:56:20;;;;;;;2.55;1.35;;;;;;;8.06;100.00;102471.88;5009503;28;20600;-78
2022/01/23 02:10:06;;;;;;;2.03;1.45;;;;;;;7.99;100.00;102454.56;5015057;28;20046;-78
2022/01/23 02:18:14;;;;;;;4.53;1.30;;;;;;;8.07;100.00;102446.63;5008996;28;20517;-77
2022/01/23 02:23:55;;;;;;;4.45;1.50;;;;;;;8.07;100.00;102440.47;5010095;28;20034;-77
2022/01/23 02:51:36;;;;;;;1.35;0.93;;;;;;;8.02;100.00;102451.28;5009264;28;20029;-78
2022/01/23 02:56:37;;;;;;;4.57;1.05;;;;;;;8.08;100.00;102442.88;4989441;28;20034;-78
2022/01/23 02:59:20;;;;;;;4.45;1.33;;;;;;;8.17;100.00;102451.81;4990162;28;20395;-77
2022/01/23 03:05:08;;;;;;;2.17;1.00;;;;;;;8.08;100.00;102453.59;4952609;28;20043;-78
2022/01/23 03:10:11;;;;;;;4.00;1.42;;;;;;;8.11;100.00;102462.91;5008763;28;20055;-79
2022/01/23 03:28:36;;;;;;;3.03;1.52;;;;;;;8.07;100.00;102461.94;5009327;28;20137;-78
2022/01/23 03:33:35;;;;;;;3.05;1.50;;;;;;;8.06;100.00;102454.97;5009071;28;20403;-78
2022/01/23 03:36:03;;;;;;;2.20;1.15;;;;;;;8.16;100.00;102455.63;5009883;28;20475;-78
2022/01/23 03:38:29;;;;;;;2.25;1.20;;;;;;;8.20;100.00;102458.50;5011477;28;20034;-78
2022/01/23 03:40:55;;;;;;;2.60;1.30;;;;;;;8.13;100.00;102456.19;5012592;28;20029;-78
2022/01/23 03:43:27;;;;;;;2.75;1.00;;;;;;;8.03;100.00;102444.84;5014075;28;20412;-78
2022/01/23 03:46:20;;;;;;;2.53;1.42;;;;;;;8.15;100.00;102448.63;5011946;28;20448;-77
2022/01/23 03:51:12;;;;;;;6.60;1.55;;;;;;;8.15;100.00;102455.88;5012339;28;20029;-77
2022/01/23 03:53:43;;;;;;;1.75;1.00;;;;;;;8.19;100.00;102448.84;5012646;28;20030;-77
2022/01/23 03:56:08;;;;;;;1.52;1.17;;;;;;;8.20;100.00;102450.44;5007370;28;20069;-80
2022/01/23 03:58:36;;;;;;;3.25;1.15;;;;;;;8.21;100.00;102447.47;5012233;28;20026;-77
2022/01/23 04:01:06;;;;;;;2.72;1.52;;;;;;;8.14;100.00;102449.75;5012648;28;20033;-77
2022/01/23 04:03:34;;;;;;;3.88;1.10;;;;;;;8.13;100.00;102450.00;5015402;28;20512;-77
2022/01/23 04:06:00;;;;;;;3.28;1.50;;;;;;;8.04;100.00;102441.84;5013184;28;20037;-77
2022/01/23 04:08:26;;;;;;;3.75;1.35;;;;;;;8.19;100.00;102444.28;5017269;28;20037;-77
2022/01/23 04:10:52;;;;;;;2.85;1.13;;;;;;;8.15;100.00;102454.00;4993917;23;20525;-70
2022/01/23 04:13:23;;;;;;;2.92;1.90;;;;;;;8.17;100.00;102457.19;4983062;28;20534;-70
2022/01/23 04:32:38;;;;;;;3.85;1.65;;;;;;;8.15;100.00;102480.84;4952682;28;20051;-70
2022/01/23 04:45:46;;;;;;;2.85;1.38;;;;;;;8.35;100.00;102485.09;4954523;28;20118;-70
2022/01/23 05:02:11;;;;;;;4.20;1.27;;;;;;;8.27;100.00;102487.66;4967345;28;20137;-70
2022/01/23 05:04:55;;;;;;;4.32;1.15;;;;;;;8.25;100.00;102493.31;4957970;28;20085;-70
2022/01/23 05:07:44;;;;;;;2.63;1.13;;;;;;;8.29;100.00;102491.66;4962978;28;20146;-70
2022/01/23 05:10:16;;;;;;;5.65;1.42;;;;;;;8.26;100.00;102492.25;4969408;28;20101;-70
2022/01/23 05:12:47;;;;;;;3.95;1.17;;;;;;;8.31;100.00;102494.03;4987266;28;20129;-70
2022/01/23 05:15:13;;;;;;;2.60;0.98;;;;;;;8.28;100.00;102500.81;4987968;28;20121;-70
2022/01/23 05:17:39;;;;;;;2.40;1.48;;;;;;;8.37;100.00;102504.41;4991403;28;20506;-70
2022/01/23 05:20:06;;;;;;;3.08;1.80;;;;;;;8.36;100.00;102507.38;4973223;28;20050;-70
2022/01/23 05:22:40;;;;;;;3.60;1.63;;;;;;;8.32;100.00;102512.56;4967899;28;20031;-70
2022/01/23 05:27:34;;;;;;;3.63;1.50;;;;;;;8.39;100.00;102507.59;4970623;28;20261;-70
2022/01/23 05:30:00;;;;;;;2.92;1.25;;;;;;;8.38;100.00;102513.25;4965367;28;20638;-70
2022/01/23 05:32:34;;;;;;;3.08;1.52;;;;;;;8.46;100.00;102502.63;4985697;28;20058;-70
2022/01/23 05:34:59;;;;;;;2.38;1.20;;;;;;;8.44;100.00;102501.34;4972731;28;20031;-70
2022/01/23 05:37:27;;;;;;;2.50;1.52;;;;;;;8.40;100.00;102503.03;4986353;28;20041;-70
2022/01/23 05:39:53;;;;;;;2.88;1.13;;;;;;;8.46;100.00;102504.53;4983684;28;20038;-70
2022/01/23 05:42:19;;;;;;;5.82;1.70;;;;;;;8.41;100.00;102508.09;4987128;28;20035;-70
2022/01/23 05:44:45;;;;;;;4.05;1.35;;;;;;;8.40;100.00;102511.84;4987520;28;20042;-70
2022/01/23 05:47:12;;;;;;;2.95;1.55;;;;;;;8.46;100.00;102515.28;4980856;28;20117;-70
2022/01/23 05:49:50;;;;;;;3.85;1.75;;;;;;;8.40;100.00;102514.53;4986389;28;20072;-70
2022/01/23 05:52:50;;;;;;;2.77;1.70;;;;;;;8.46;100.00;102516.06;4920581;29;20040;-70
2022/01/23 05:55:35;;;;;;;3.13;1.83;;;;;;;8.58;100.00;102524.44;4958101;28;20041;-70
2022/01/23 05:58:19;;;;;;;5.40;1.90;;;;;;;8.48;100.00;102513.88;4971969;28;20065;-70
2022/01/23 06:00:47;;;;;;;4.30;2.13;;;;;;;8.48;100.00;102521.16;4979671;28;20073;-70
2022/01/23 06:03:16;;;;;;;3.42;1.80;;;;;;;8.41;100.00;102510.78;4987322;28;20034;-69
2022/01/23 06:05:47;;;;;;;1.85;1.15;;;;;;;8.49;100.00;102520.03;4988314;28;20039;-70
2022/01/23 06:08:21;;;;;;;3.38;1.52;;;;;;;8.56;100.00;102523.94;5005023;28;20062;-69
2022/01/23 06:10:57;;;;;;;4.03;1.60;;;;;;;8.56;100.00;102529.31;4989770;28;20101;-70
2022/01/23 06:13:36;;;;;;;2.60;1.60;;;;;;;8.42;100.00;102538.44;4986378;28;20030;-70
2022/01/23 06:16:03;;;;;;;5.30;1.88;;;;;;;8.49;100.00;102531.59;4994645;28;20038;-70
2022/01/23 06:18:29;;;;;;;5.18;1.42;;;;;;;8.49;100.00;102538.84;4973992;28;20042;-71
2022/01/23 06:21:18;;;;;;;2.53;1.58;;;;;;;8.63;100.00;102534.31;4974013;28;20073;-71
2022/01/23 06:24:04;;;;;;;1.73;1.13;;;;;;;8.50;100.00;102530.47;4982522;28;20057;-71
2022/01/23 06:27:01;;;;;;;4.38;1.48;;;;;;;8.54;100.00;102536.84;4985943;28;20528;-70
2022/01/23 06:29:31;;;;;;;;;;;;;;;8.44;100.00;102533.56;4980720;28;20323;-70
2022/01/23 06:32:00;;;;;;;3.70;1.15;;;;;;;8.54;100.00;102530.69;4986058;28;19961;-70
2022/01/23 06:34:27;;;;;;;3.13;1.75;;;;;;;8.55;100.00;102543.03;4985947;28;20039;-71
2022/01/23 06:36:53;;;;;;;4.05;1.58;;;;;;;8.59;100.00;102536.00;4989867;28;20061;-70
2022/01/23 06:39:21;;;;;;;3.92;1.42;;;;;;;8.51;100.00;102528.59;4992860;28;20581;-70
2022/01/23 06:41:48;;;;;;;2.17;1.10;;;;;;;8.47;100.00;102531.09;4978875;28;20062;-70
2022/01/23 06:44:24;;;;;;;2.50;1.10;;;;;;;8.56;100.00;102533.88;4985572;28;20030;-70
2022/01/23 06:46:50;;;;;;;3.25;1.63;;;;;;;8.50;100.00;102524.31;4983000;28;20507;-70
2022/01/23 06:49:15;;;;;;;3.17;1.30;;;;;;;8.45;100.00;102527.91;4981734;28;20038;-70
2022/01/23 06:51:43;;;;;;;3.50;1.95;;;;;;;8.62;100.00;102533.50;4981777;28;20522;-70
2022/01/23 06:54:10;;;;;;;3.03;1.33;;;;;;;8.58;100.00;102537.06;4967844;28;20035;-70
2022/01/23 06:56:37;;;;;;;3.30;1.60;;;;;;;8.61;100.00;102539.97;4983521;28;20031;-70
2022/01/23 06:59:03;;;;;;;4.13;1.52;;;;;;;8.55;100.00;102538.47;4976747;28;20044;-69
2022/01/23 07:01:28;;;;;;;3.20;1.13;;;;;;;8.67;100.00;102546.84;4988690;28;20034;-69
2022/01/23 07:04:15;;;;;;;2.35;1.50;;;;;;;8.56;100.00;102540.06;4981974;28;20385;-70
2022/01/23 07:06:59;;;;;;;2.20;1.17;;;;;;;8.55;100.00;102551.09;4971531;28;20042;-70
2022/01/23 07:09:49;;;;;;;5.30;1.27;;;;;;;8.60;100.00;102551.00;4984741;28;20037;-70
2022/01/23 07:12:35;;;;;;;4.45;1.35;;;;;;;8.62;100.00;102560.34;4985807;28;20046;-70
2022/01/23 07:15:15;;;;;;;4.10;1.40;;;;;;;8.66;100.00;102563.25;4991060;28;20034;-71
2022/01/23 07:17:58;;;;;;;4.45;1.55;;;;;;;8.55;100.00;102572.56;4994653;28;20043;-70
2022/01/23 07:20:36;;;;;;;4.53;2.38;;;;;;;8.62;100.00;102579.16;4999647;28;20092;-70
2022/01/23 07:23:07;;;;;;;6.45;1.75;;;;;;;8.61;100.00;102580.25;5007201;28;20540;-70
2022/01/23 07:25:33;;;;;;;3.90;1.60;;;;;;;8.59;100.00;102582.44;4986690;28;20039;-70
2022/01/23 07:28:00;;;;;;;1.90;1.50;;;;;;;8.69;100.00;102593.00;4969848;28;20033;-70
2022/01/23 07:30:36;;;;;;;2.72;1.48;;;;;;;8.62;100.00;102597.94;4988585;28;20035;-70
2022/01/23 07:33:03;;;;;;;5.70;1.75;;;;;;;8.57;100.00;102595.38;5009555;28;20034;-70
2022/01/23 07:35:29;;;;;;;2.47;1.08;;;;;;;8.55;100.00;102597.53;4986086;28;20101;-70
2022/01/23 07:37:55;;;;;;;7.95;1.75;;;;;;;8.58;100.00;102605.00;4986621;28;20088;-70
2022/01/23 07:40:38;;;;;;;2.05;1.10;;;;;;;8.56;100.00;102604.50;4978398;28;20029;-70
2022/01/23 07:43:12;;;;;;;3.90;1.08;;;;;;;8.62;100.00;102608.69;4990399;28;20057;-70
2022/01/23 07:45:56;;;;;;;4.93;1.95;;;;;;;8.69;100.00;102619.06;4970863;28;20115;-70
2022/01/23 07:48:39;;;;;;;3.08;1.27;;;;;;;8.73;100.00;102617.41;4986008;28;20027;-70
2022/01/23 07:51:26;;;;;;;3.03;1.55;;;;;;;8.66;100.00;102615.06;4977888;28;20061;-69
2022/01/23 07:54:05;;;;;;;3.78;1.80;;;;;;;8.65;100.00;102618.06;4988662;28;20439;-70
2022/01/23 07:56:46;;;;;;;4.05;1.23;;;;;;;8.63;100.00;102620.25;4987635;28;20027;-70
2022/01/23 07:59:32;;;;;;;4.55;1.95;;;;;;;8.69;100.00;102624.44;4932644;28;20039;-70
2022/01/23 08:02:12;;;;;;;5.57;2.03;;;;;;;8.69;100.00;102627.13;4987613;28;20119;-69
2022/01/23 08:04:37;;;;;;;5.32;1.75;;;;;;;8.72;100.00;102631.91;4976518;28;20050;-70
2022/01/23 08:07:11;;;;;;;4.13;1.58;;;;;;;8.74;100.00;102641.28;4987431;28;20266;-71
2022/01/23 08:09:42;;;;;;;2.55;1.17;;;;;;;8.63;100.00;102641.72;5001921;28;20046;-70
2022/01/23 08:12:08;;;;;;;4.70;1.88;;;;;;;8.66;100.00;102639.25;4968276;28;20030;-70
2022/01/23 08:14:34;;;;;;;5.32;1.63;;;;;;;8.70;100.00;102647.50;4975073;28;20042;-71
2022/01/23 08:16:59;;;;;;;3.03;1.20;;;;;;;8.79;100.00;102643.06;4971422;28;20030;-70
2022/01/23 08:19:24;;;;;;;4.72;1.60;;;;;;;8.73;100.00;102636.97;4974873;28;20041;-70
2022/01/23 08:21:50;;;;;;;3.55;1.75;;;;;;;8.83;100.00;102639.50;4973516;28;20034;-70
2022/01/23 08:24:15;;;;;;;4.07;1.48;;;;;;;8.76;100.00;102639.09;4974910;28;20050;-69
2022/01/23 08:26:41;;;;;;;2.40;1.38;;;;;;;8.82;100.00;102639.81;4973140;28;20062;-70
2022/01/23 08:29:07;;;;;;;2.67;1.20;;;;;;;8.81;100.00;102643.56;4971952;28;20085;-69
2022/01/23 08:31:33;;;;;;;2.70;1.17;;;;;;;8.76;100.00;102651.72;4986360;28;20065;-70
2022/01/23 08:33:59;;;;;;;3.15;1.08;;;;;;;8.83;100.00;102644.06;4973602;28;20030;-70
2022/01/23 08:36:25;;;;;;;2.25;0.98;;;;;;;8.80;100.00;102656.22;4971052;28;20104;-70
2022/01/23 08:38:51;;;;;;;3.70;1.63;;;;;;;8.80;100.00;102648.16;4971408;28;20213;-69
2022/01/23 08:43:47;;;;;;;3.55;1.02;;;;;;;8.94;100.00;102657.03;4972315;28;20071;-68
2022/01/23 08:46:13;;;;;;;1.23;0.77;;;;;;;8.96;100.00;102652.19;4971955;28;20044;-69
2022/01/23 08:48:40;;;;;;;2.78;1.33;;;;;;;8.98;100.00;102659.97;4974521;28;20509;-69
2022/01/23 08:51:05;;;;;;;3.03;1.52;;;;;;;9.04;100.00;102664.13;4975534;28;20049;-69
2022/01/23 08:53:31;;;;;;;3.15;1.35;;;;;;;8.99;100.00;102669.63;4987674;28;20030;-68
2022/01/23 08:55:57;;;;;;;4.40;1.08;;;;;;;9.05;100.00;102673.81;4983954;28;20038;-69
2022/01/23 08:58:23;;;;;;;2.08;1.33;;;;;;;9.04;100.00;102664.13;4973597;28;20121;-69
2022/01/23 09:00:48;;;;;;;3.13;1.25;;;;;;;8.95;100.00;102676.66;4970372;28;20122;-68
2022/01/23 09:03:14;;;;;;;2.42;1.13;;;;;;;8.88;100.00;102678.94;4971612;28;20046;-69
2022/01/23 09:05:40;;;;;;;1.85;0.95;;;;;;;8.92;100.00;102688.78;4976699;28;20041;-69
2022/01/23 09:08:05;;;;;;;2.25;1.00;;;;;;;9.03;100.00;102682.19;4992388;28;20042;-68
2022/01/23 09:10:40;;;;;;;1.65;1.00;;;;;;;8.89;100.00;102678.63;4978564;28;20039;-69
2022/01/23 09:15:32;;;;;;;3.05;1.23;;;;;;;9.02;100.00;102680.56;4972272;28;20035;-69
2022/01/23 09:18:00;;;;;;;2.03;1.08;;;;;;;8.94;100.00;102675.84;4970640;28;20071;-69
2022/01/23 09:20:26;;;;;;;2.08;1.05;;;;;;;9.04;100.00;102677.56;4967140;28;20554;-69
2022/01/23 09:22:51;;;;;;;4.60;1.40;;;;;;;9.13;100.00;102688.47;4972900;28;20122;-69
2022/01/23 09:25:18;;;;;;;3.00;1.15;;;;;;;9.08;100.00;102692.84;4988296;28;20049;-69
2022/01/23 09:27:43;;;;;;;3.25;1.80;;;;;;;9.02;100.00;102687.81;4972150;28;20169;-69
2022/01/23 09:30:17;;;;;;;3.85;1.05;;;;;;;8.94;100.00;102694.66;4971771;28;20685;-69
2022/01/23 09:32:44;;;;;;;2.42;1.10;;;;;;;8.97;100.00;102694.09;4972369;28;20035;-71
2022/01/23 09:35:14;;;;;;;4.72;0.77;;;;;;;9.04;100.00;102696.38;4969594;28;20058;-71
2022/01/23 09:37:41;;;;;;;6.63;1.52;;;;;;;9.12;100.00;102697.63;4969828;28;20403;-72
2022/01/23 09:40:08;;;;;;;4.03;1.67;;;;;;;9.11;100.00;102702.19;4971847;28;20074;-72
2022/01/23 09:42:40;;;;;;;3.13;1.55;;;;;;;9.29;100.00;102704.03;4985237;28;20043;-71
2022/01/23 09:45:09;;;;;;;6.82;1.55;;;;;;;9.34;100.00;102701.28;4972716;28;20031;-71
2022/01/23 09:47:36;;;;;;;3.75;1.58;;;;;;;9.31;100.00;102696.47;4971990;28;20038;-71
2022/01/23 09:50:03;;;;;;;2.35;1.30;;;;;;;9.20;100.00;102695.06;4970862;28;20043;-71
2022/01/23 09:52:32;;;;;;;2.58;1.38;;;;;;;9.20;100.00;102691.56;4969964;28;20031;-71
2022/01/23 09:55:06;;;;;;;2.40;1.02;;;;;;;9.23;100.00;102699.06;4974352;28;20391;-71
2022/01/23 09:57:32;;;;;;;2.60;1.02;;;;;;;9.28;100.00;102701.66;4972591;28;20114;-71
2022/01/23 10:00:00;;;;;;;2.65;1.30;;;;;;;9.33;100.00;102705.03;4971711;28;20031;-72
2022/01/23 10:02:26;;;;;;;3.58;1.42;;;;;;;9.34;100.00;102708.53;4970771;28;20090;-72
2022/01/23 10:04:54;;;;;;;2.90;1.17;;;;;;;9.30;100.00;102712.91;4968651;28;20137;-71
2022/01/23 10:07:21;;;;;;;2.72;1.17;;;;;;;9.22;100.00;102710.88;4972583;28;20106;-71
2022/01/23 10:09:52;;;;;;;4.57;2.20;;;;;;;9.36;100.00;102719.78;4987280;23;20134;-75
2022/01/23 10:12:19;;;;;;;1.77;1.10;;;;;;;9.39;100.00;102729.97;4987024;28;20038;-75
2022/01/23 10:14:44;;;;;;;4.57;1.17;;;;;;;9.32;100.00;102719.59;4989594;28;20056;-75
2022/01/23 10:17:10;;;;;;;2.20;1.10;;;;;;;9.33;100.00;102725.78;4989590;28;20034;-76
2022/01/23 10:19:35;;;;;;;1.55;0.85;;;;;;;9.36;100.00;102717.91;4989254;28;20104;-76
2022/01/23 10:22:03;;;;;;;2.05;0.90;;;;;;;9.36;100.00;102731.34;4973103;28;20041;-76
2022/01/23 10:24:29;;;;;;;1.92;0.95;;;;;;;9.38;100.00;102729.16;4969707;28;20159;-75
2022/01/23 10:26:57;;;;;;;0.98;0.80;;;;;;;9.34;100.00;102725.47;4983514;28;20046;-76
2022/01/23 10:29:29;;;;;;;1.60;0.77;;;;;;;9.51;100.00;102732.97;4972059;28;20035;-75
2022/01/23 10:32:04;;;;;;;6.72;1.15;;;;;;;9.43;100.00;102731.75;4968155;28;20509;-75
2022/01/23 10:35:05;;;;;;;8.20;1.83;;;;;;;9.47;100.00;102726.56;4982521;28;20046;-75
2022/01/23 10:37:41;;;;;;;1.38;1.02;;;;;;;9.53;100.00;102720.03;4915713;29;20439;-75
2022/01/23 10:40:22;;;;;;;1.63;0.90;;;;;;;9.54;100.00;102722.41;4972399;28;20101;-76
2022/01/23 10:46:34;;;;;;;3.17;1.00;;;;;;;9.50;100.00;102726.00;4987300;28;20046;-77
2022/01/23 10:48:37;;;;;;;2.20;1.17;;;;;;;9.70;100.00;102728.31;4967087;28;20070;-77
2022/01/23 10:51:28;;;;;;;3.20;1.80;;;;;;;9.61;100.00;102730.91;4957000;28;20043;-76
2022/01/23 10:54:16;;;;;;;2.13;1.23;;;;;;;9.57;100.00;102737.16;4977217;28;20043;-76
2022/01/23 10:57:00;;;;;;;4.18;1.70;;;;;;;9.54;100.00;102729.69;4965560;28;20038;-76
2022/01/23 10:59:38;;;;;;;3.70;1.30;;;;;;;9.58;100.00;102728.00;4976172;28;20485;-76
2022/01/23 11:02:09;;;;;;;3.20;1.52;;;;;;;9.52;100.00;102731.88;4990097;28;20593;-77
2022/01/23 11:04:50;;;;;;;2.88;1.25;;;;;;;9.52;100.00;102713.88;4981397;28;20043;-75
2022/01/23 11:07:15;;;;;;;2.80;1.40;;;;;;;9.50;100.00;102726.81;4982022;28;20097;-77
2022/01/23 11:09:41;;;;;;;4.28;1.50;;;;;;;9.51;100.00;102722.22;4980284;28;20034;-76
2022/01/23 11:12:29;;;;;;;2.13;1.02;;;;;;;9.59;100.00;102713.47;4978471;28;20093;-76
2022/01/23 11:17:52;;;;;;;10.15;1.88;;;;;;;9.57;100.00;102711.06;4982982;28;20518;-76
2022/01/23 11:20:41;;;;;;;3.65;1.80;;;;;;;9.58;100.00;102709.97;4986210;28;20118;-76
2022/01/23 11:23:24;;;;;;;2.80;1.40;;;;;;;9.62;100.00;102707.50;4977212;28;20126;-76
2022/01/23 11:25:52;;;;;;;4.55;1.98;;;;;;;9.46;100.00;102706.19;4982110;28;20034;-76
2022/01/23 11:28:19;;;;;;;6.93;2.92;;;;;;;9.61;100.00;102716.66;4980587;28;20046;-76
2022/01/23 11:30:48;;;;;;;6.43;2.45;;;;;;;9.55;100.00;102718.63;4967873;28;20030;-76
2022/01/23 11:33:17;;;;;;;6.47;2.35;;;;;;;9.59;100.00;102702.69;4975953;28;20031;-77
2022/01/23 11:35:43;;;;;;;8.60;3.80;;;;;;;9.47;100.00;102710.44;4972515;28;20215;-77
2022/01/23 11:38:14;;;;;;;10.02;2.90;;;;;;;9.66;100.00;102713.84;4981598;28;20036;-76
2022/01/23 11:54:58;;;;;;;10.13;3.25;;;;;;;9.66;100.00;102703.91;4973237;28;20069;-77
2022/01/23 11:57:33;;;;;;;6.38;3.03;;;;;;;9.72;100.00;102699.22;4979457;28;20046;-77
2022/01/23 12:00:20;;;;;;;7.70;3.13;;;;;;;9.76;100.00;102708.28;4952874;28;20042;-77
2022/01/23 12:03:04;;;;;;;7.53;2.47;;;;;;;9.84;100.00;102699.53;4977693;28;20089;-76
2022/01/23 12:05:30;;;;;;;5.30;2.40;;;;;;;9.96;100.00;102705.22;4978521;28;20118;-77
2022/01/23 12:08:28;;;;;;;4.88;2.33;;;;;;;9.87;100.00;102709.72;4993929;28;20106;-77
2022/01/23 12:11:16;;;;;;;5.70;2.97;;;;;;;9.92;100.00;102712.28;4981250;28;20034;-77
2022/01/23 12:16:27;;;;;;;8.10;2.58;;;;;;;10.04;100.00;102709.91;4987846;28;20158;-76
2022/01/23 12:19:23;;;;;;;4.90;1.75;;;;;;;10.00;100.00;102708.91;4975306;28;20073;-76
2022/01/23 12:21:51;;;;;;;9.88;2.75;;;;;;;9.93;100.00;102706.59;4970580;28;20035;-76
2022/01/23 12:24:19;;;;;;;5.88;2.25;;;;;;;9.91;100.00;102699.94;4973906;28;20124;-76
2022/01/23 12:26:46;;;;;;;3.45;1.90;;;;;;;9.96;100.00;102713.28;4974715;28;20085;-76
2022/01/23 12:29:32;;;;;;;4.40;2.25;;;;;;;10.01;100.00;102705.09;4988161;28;20031;-76
2022/01/23 12:32:16;;;;;;;4.20;1.95;;;;;;;9.82;100.00;102702.53;4984932;28;20511;-76
2022/01/23 12:34:50;;;;;;;4.72;1.67;;;;;;;9.91;100.00;102694.56;4981969;28;20118;-77
2022/01/23 12:37:15;;;;;;;6.32;2.38;;;;;;;10.08;100.00;102699.34;4974458;28;20052;-77
2022/01/23 12:39:41;;;;;;;5.85;1.25;;;;;;;10.00;100.00;102701.63;4979639;28;20625;-77
2022/01/23 12:42:07;;;;;;;1.63;1.13;;;;;;;10.16;100.00;102701.34;4980611;28;20056;-77
2022/01/23 12:44:33;;;;;;;4.95;1.50;;;;;;;10.17;100.00;102703.75;4971176;28;20097;-76
2022/01/23 12:47:03;;;;;;;6.65;1.17;;;;;;;10.01;100.00;102703.22;4980363;28;20392;-76
2022/01/23 12:49:31;;;;;;;4.22;1.55;;;;;;;10.00;100.00;102703.53;4969659;28;20514;-77
2022/01/23 12:51:56;;;;;;;2.65;1.45;;;;;;;10.02;100.00;102706.72;4970357;28;20345;-77
2022/01/23 12:54:28;;;;;;;3.13;1.48;;;;;;;9.96;100.00;102694.47;4979767;28;20046;-77
2022/01/23 12:56:54;;;;;;;3.40;1.40;;;;;;;9.94;100.00;102699.34;4988420;28;20038;-77
2022/01/23 12:59:31;;;;;;;3.55;1.90;;;;;;;9.99;100.00;102696.53;4989983;28;20038;-76
2022/01/23 13:02:01;;;;;;;2.17;1.20;;;;;;;10.13;100.00;102691.97;4978450;28;20049;-76
2022/01/23 13:04:32;;;;;;;3.13;0.80;;;;;;;10.12;100.00;102687.69;4974242;28;20038;-75
2022/01/23 13:07:06;;;;;;;5.35;1.63;;;;;;;10.14;100.00;102695.47;4968384;28;20042;-76
2022/01/23 13:09:46;;;;;;;4.72;1.00;;;;;;;10.05;100.00;102695.34;4979240;28;20415;-76
2022/01/23 13:15:12;;;;;;;1.38;0.55;;;;;;;9.99;100.00;102694.66;4982921;28;20030;-76
2022/01/23 13:31:54;;;;;;;0.60;0.60;;;;;;;10.07;100.00;102698.53;4971638;28;20151;-77
2022/01/23 13:34:36;;;;;;;0.55;0.55;;;;;;;10.13;100.00;102701.94;4974822;28;20046;-76
2022/01/23 13:37:01;;;;;;;3.78;0.73;;;;;;;10.08;100.00;102699.34;4970385;28;20045;-76
2022/01/23 13:40:04;;;;;;;1.23;0.75;;;;;;;10.06;100.00;102696.94;4974198;28;20106;-76
2022/01/23 13:42:45;;;;;;;1.83;0.63;;;;;;;10.21;100.00;102703.94;4952008;28;20039;-76
2022/01/23 14:02:25;;;;;;;0.88;0.50;;;;;;;10.05;100.00;102716.88;4965498;28;20414;-77
2022/01/23 14:05:03;;;;;;;1.05;0.60;;;;;;;10.00;100.00;102706.22;4973756;28;20034;-77
2022/01/23 14:07:29;;;;;;;0.95;0.60;;;;;;;9.98;100.00;102713.78;4976017;28;20038;-76
2022/01/23 14:09:58;;;;;;;3.40;0.47;;;;;;;10.22;100.00;102713.63;4976036;28;20118;-77
2022/01/23 14:12:25;;;;;;;5.03;0.80;;;;;;;10.16;100.00;102718.31;4981071;28;21501;-77
2022/01/23 14:15:05;;;;;;;0.32;0.32;;;;;;;10.21;100.00;102720.88;4981308;28;20034;-77
2022/01/23 14:17:36;;;;;;;0.52;0.52;;;;;;;10.14;100.00;102717.81;4967787;28;20071;-76
2022/01/23 14:20:10;;;;;;;3.08;0.57;;;;;;;10.16;100.00;102721.00;4963446;28;20037;-77
2022/01/23 14:22:39;;;;;;;2.08;0.60;;;;;;;10.24;100.00;102727.56;4992161;28;20035;-77
2022/01/23 14:25:10;;;;;;;2.13;0.55;;;;;;;10.17;100.00;102725.28;4979152;28;20042;-77
2022/01/23 14:27:36;;;;;;;;;;;;;;;10.09;100.00;102731.31;4981412;28;20053;-77
2022/01/23 14:30:06;;;;;;;0.45;0.40;;;;;;;10.13;100.00;102721.59;4979560;28;19914;-77
2022/01/23 14:32:44;;;;;;;0.38;0.38;;;;;;;10.15;100.00;102724.78;4964715;28;20070;-77
2022/01/23 14:35:19;;;;;;;0.40;0.40;;;;;;;10.10;100.00;102727.59;4987631;28;20042;-78
2022/01/23 14:37:48;;;;;;;0.63;0.38;;;;;;;10.02;100.00;102729.06;4974025;28;20129;-76
2022/01/23 14:40:26;;;;;;;1.15;0.52;;;;;;;9.88;100.00;102728.25;4985109;28;20125;-77
2022/01/23 14:43:05;;;;;;;0.88;0.35;;;;;;;9.88;100.00;102735.50;4990455;28;20198;-77
2022/01/23 14:45:34;;;;;;;0.60;0.60;;;;;;;9.96;100.00;102730.25;4979557;28;20050;-76
2022/01/23 14:48:01;;;;;;;6.32;0.77;;;;;;;9.95;100.00;102744.78;4979125;28;20027;-75
2022/01/23 14:50:30;;;;;;;1.05;0.68;;;;;;;9.79;100.00;102745.38;4977842;28;20122;-76
2022/01/23 14:52:55;;;;;;;0.45;0.45;;;;;;;9.87;100.00;102742.78;4983387;28;20031;-76
2022/01/23 14:55:22;;;;;;;0.90;0.60;;;;;;;9.89;100.00;102745.97;4989892;28;20408;-76
2022/01/23 14:57:47;;;;;;;0.60;0.55;;;;;;;9.95;100.00;102752.84;4982216;28;20097;-76
2022/01/23 15:00:14;;;;;;;2.25;0.75;;;;;;;10.00;100.00;102758.16;4982994;28;20482;-76
2022/01/23 15:02:41;;;;;;;0.68;0.68;;;;;;;9.95;100.00;102760.13;4979951;28;20085;-76
2022/01/23 15:05:07;;;;;;;0.60;0.50;;;;;;;9.88;100.00;102762.41;4961711;28;20050;-76
2022/01/23 15:07:41;;;;;;;1.10;0.50;;;;;;;9.90;100.00;102762.94;4990590;28;20045;-76
2022/01/23 15:10:09;;;;;;;0.93;0.70;;;;;;;9.80;100.00;102763.09;4978198;28;20427;-76